Terminal Aerodrome Forecast
Issued by NWS

Home | Current Version | Previous Version | Text Only | Print | Product List | Glossary On
Versions: 1 2 3 4 5 6 7 8 9 10 11 12 13 14 15 16 17 18 19 20
167
FTUS43 KPAH 121926 AAA
TAFCGI
TAF AMD
KCGI 121926Z 1219/1318 36013G21KT P6SM SCT025 BKN040
      TEMPO 1219/1223 BKN025
     FM130200 35010G18KT P6SM SCT025
     FM131500 01008KT P6SM SKC=

USA.gov is the U.S. government's official web portal to all federal, state and local government web resources and services.